Time;durP1;ratioP1;P1;durP2;ratioP2;P2;SDS_P1;SDS_P2;PMS_P1;PMS_P2;Temp;Humidity;BMP_temperature;BMP_pressure;BME280_temperature;BME280_humidity;BME280_pressure;Samples;Min_cycle;Max_cycle;Signal;HPM_P1;HPM_P2
2021/12/18 00:00:13;;;;;;;11.82;5.93;;;19.80;99.90;;;;;;4166505;28;20208;-75
2021/12/18 00:02:15;;;;;;;6.00;5.50;;;19.80;99.90;;;;;;4166166;28;20267;-75
2021/12/18 00:04:18;;;;;;;5.80;5.30;;;19.80;99.90;;;;;;4165948;28;20216;-75
2021/12/18 00:06:20;;;;;;;5.90;5.30;;;19.80;99.90;;;;;;4165965;28;20213;-75
2021/12/18 00:08:23;;;;;;;5.90;5.22;;;19.80;99.90;;;;;;4166149;28;20216;-75
2021/12/18 00:10:27;;;;;;;6.53;5.93;;;19.80;99.90;;;;;;4168262;28;20730;-75
2021/12/18 00:12:30;;;;;;;6.60;5.97;;;19.80;99.90;;;;;;4172280;28;20213;-75
2021/12/18 00:14:32;;;;;;;6.47;5.88;;;19.80;99.90;;;;;;4165889;28;20213;-75
2021/12/18 00:16:34;;;;;;;6.78;6.10;;;19.80;99.90;;;;;;4171829;28;20620;-75
2021/12/18 00:18:37;;;;;;;7.07;6.07;;;19.80;99.90;;;;;;4182276;28;20216;-75
2021/12/18 00:20:40;;;;;;;6.00;5.40;;;19.80;99.90;;;;;;4181901;28;20215;-75
2021/12/18 00:22:42;;;;;;;5.80;5.30;;;19.70;99.90;;;;;;4182056;28;20219;-75
2021/12/18 00:24:45;;;;;;;6.63;5.40;;;19.70;99.90;;;;;;4179278;28;20234;-75
2021/12/18 00:26:49;;;;;;;6.25;5.65;;;19.70;99.90;;;;;;4182197;28;20269;-75
2021/12/18 00:28:51;;;;;;;6.20;5.13;;;19.70;99.90;;;;;;4176384;28;20216;-75
2021/12/18 00:30:53;;;;;;;7.18;5.82;;;19.70;99.90;;;;;;4168933;28;20638;-75
2021/12/18 00:32:56;;;;;;;6.60;5.70;;;19.70;99.90;;;;;;4165789;28;20224;-75
2021/12/18 00:34:58;;;;;;;6.07;5.47;;;19.70;99.90;;;;;;4165335;28;20275;-75
2021/12/18 00:37:00;;;;;;;6.05;5.50;;;19.70;99.90;;;;;;4165457;28;20240;-75
2021/12/18 00:39:04;;;;;;;6.65;5.93;;;19.70;99.90;;;;;;4165519;28;20216;-75
2021/12/18 00:41:35;;;;;;;5.85;5.35;;;19.70;99.90;;;;;;4165117;28;20267;-75
2021/12/18 00:44:01;;;;;;;5.60;5.07;;;19.70;99.90;;;;;;4165543;28;20259;-75
2021/12/18 00:46:02;;;;;;;6.20;5.60;;;19.70;99.90;;;;;;4172998;28;20315;-75
2021/12/18 00:48:05;;;;;;;7.57;5.97;;;19.70;99.90;;;;;;4168789;28;20209;-75
2021/12/18 00:50:11;;;;;;;8.02;5.57;;;19.70;99.90;;;;;;4165151;28;20217;-75
2021/12/18 00:52:13;;;;;;;6.60;6.00;;;19.70;99.90;;;;;;4165426;28;20732;-75
2021/12/18 00:54:15;;;;;;;5.88;5.28;;;19.60;99.90;;;;;;4164839;28;20213;-75
2021/12/18 00:56:18;;;;;;;7.40;6.43;;;19.60;99.90;;;;;;4165029;28;20220;-75
2021/12/18 00:58:20;;;;;;;6.55;5.97;;;19.70;99.90;;;;;;4164940;28;20216;-75
2021/12/18 01:00:25;;;;;;;6.38;5.78;;;19.60;99.90;;;;;;4165079;28;20649;-75
2021/12/18 01:02:28;;;;;;;6.68;6.00;;;19.60;99.90;;;;;;4165214;28;20582;-75
2021/12/18 01:04:32;;;;;;;7.15;6.30;;;19.60;99.90;;;;;;4165097;28;20216;-75
2021/12/18 01:06:34;;;;;;;6.75;5.57;;;19.60;99.90;;;;;;4176473;28;20219;-75
2021/12/18 01:08:37;;;;;;;7.22;6.53;;;19.60;99.90;;;;;;4164657;28;20208;-75
2021/12/18 01:10:55;;;;;;;7.28;6.57;;;19.60;99.90;;;;;;4165051;28;20220;-75
2021/12/18 01:13:00;;;;;;;6.43;5.82;;;19.60;99.90;;;;;;4164783;28;20212;-75
2021/12/18 01:15:16;;;;;;;7.00;6.40;;;19.60;99.90;;;;;;4164667;28;20216;-75
2021/12/18 01:24:18;;;;;;;7.68;6.97;;;19.60;99.90;;;;;;4167601;28;20273;-75
2021/12/18 01:26:20;;;;;;;6.85;6.25;;;19.60;99.90;;;;;;4173825;28;20220;-75
2021/12/18 01:28:23;;;;;;;8.75;7.60;;;19.60;99.90;;;;;;4181099;28;20262;-75
2021/12/18 01:30:26;;;;;;;7.93;7.13;;;19.50;99.90;;;;;;4179061;28;20220;-75
2021/12/18 01:32:30;;;;;;;7.53;6.72;;;19.50;99.90;;;;;;4164416;28;20268;-75
2021/12/18 01:34:32;;;;;;;8.02;7.32;;;19.50;99.90;;;;;;4164551;28;20263;-75
2021/12/18 01:36:34;;;;;;;7.88;7.18;;;19.50;99.90;;;;;;4164064;28;20289;-75
2021/12/18 01:38:37;;;;;;;7.65;6.95;;;19.50;99.90;;;;;;4164505;28;20335;-75
2021/12/18 01:40:39;;;;;;;7.93;7.22;;;19.50;99.90;;;;;;4164789;28;20382;-75
2021/12/18 01:45:11;;;;;;;8.25;7.45;;;19.50;99.90;;;;;;4124824;28;20205;-75
2021/12/18 01:52:03;;;;;;;8.20;7.40;;;19.50;99.90;;;;;;4148154;28;20185;-75
2021/12/18 01:54:06;;;;;;;8.68;7.88;;;19.50;99.90;;;;;;4147928;28;20307;-75
2021/12/18 01:56:09;;;;;;;9.00;8.20;;;19.50;99.90;;;;;;4147713;28;20240;-75
2021/12/18 01:58:12;;;;;;;7.97;7.28;;;19.50;99.90;;;;;;4147634;28;20237;-75
2021/12/18 02:00:16;;;;;;;8.90;8.00;;;19.50;99.90;;;;;;4147885;28;20213;-75
2021/12/18 02:02:20;;;;;;;9.25;8.13;;;19.50;99.90;;;;;;4158958;28;20221;-75
2021/12/18 02:04:22;;;;;;;9.20;8.27;;;19.50;99.90;;;;;;4147845;28;20616;-75
2021/12/18 02:06:28;;;;;;;8.40;7.60;;;19.50;99.90;;;;;;4147670;28;20221;-75
2021/12/18 02:08:33;;;;;;;9.32;8.32;;;19.50;99.90;;;;;;4148300;28;20607;-75
2021/12/18 02:10:45;;;;;;;8.15;7.43;;;19.50;99.90;;;;;;4147957;28;20267;-75
2021/12/18 02:12:51;;;;;;;9.23;8.32;;;19.50;99.90;;;;;;4147815;28;20213;-75
2021/12/18 02:21:44;;;;;;;9.35;8.45;;;19.50;99.90;;;;;;4159881;28;20591;-75
2021/12/18 02:23:47;;;;;;;9.38;8.40;;;19.40;99.90;;;;;;4149418;28;20244;-75
2021/12/18 02:25:50;;;;;;;9.02;8.20;;;19.40;99.90;;;;;;4150596;28;20743;-75
2021/12/18 02:27:55;;;;;;;9.38;8.40;;;19.40;99.90;;;;;;4163907;28;20254;-75
2021/12/18 02:30:03;;;;;;;9.45;8.50;;;19.40;99.90;;;;;;4164328;28;20696;-75
2021/12/18 02:32:06;;;;;;;9.57;8.68;;;19.40;99.90;;;;;;4179435;28;20292;-75
2021/12/18 02:34:14;;;;;;;10.02;9.02;;;19.40;99.90;;;;;;4180316;28;20277;-75
2021/12/18 02:36:24;;;;;;;10.45;9.35;;;19.40;99.90;;;;;;4180481;28;20326;-75
2021/12/18 02:38:43;;;;;;;9.77;8.88;;;19.40;99.90;;;;;;4180233;28;20235;-75
2021/12/18 02:41:03;;;;;;;11.52;10.43;;;19.40;99.90;;;;;;4175280;28;20261;-75
2021/12/18 02:43:05;;;;;;;10.55;9.55;;;19.40;99.90;;;;;;4166971;28;20208;-75
2021/12/18 02:45:09;;;;;;;11.00;9.90;;;19.40;99.90;;;;;;4164090;28;20216;-75
2021/12/18 02:47:12;;;;;;;10.05;9.15;;;19.40;99.90;;;;;;4163956;28;20282;-75
2021/12/18 02:49:17;;;;;;;10.55;9.55;;;19.30;99.90;;;;;;4163785;28;20240;-75
2021/12/18 02:51:20;;;;;;;10.48;9.48;;;19.30;99.90;;;;;;4163782;28;20269;-75
2021/12/18 02:53:22;;;;;;;11.15;10.05;;;19.30;99.90;;;;;;4165163;28;20626;-75
2021/12/18 02:55:26;;;;;;;10.85;9.80;;;19.30;99.90;;;;;;4167144;28;20220;-75
2021/12/18 02:57:28;;;;;;;11.93;10.80;;;19.30;99.90;;;;;;4166651;28;20247;-75
2021/12/18 02:59:41;;;;;;;11.55;10.45;;;19.30;99.90;;;;;;4166851;28;20279;-74
2021/12/18 03:01:44;;;;;;;10.85;9.85;;;19.30;99.90;;;;;;4167273;28;20216;-75
2021/12/18 03:03:47;;;;;;;10.88;9.85;;;19.30;99.90;;;;;;4166768;28;20731;-75
2021/12/18 03:06:04;;;;;;;11.90;10.77;;;19.30;99.90;;;;;;4166896;28;20224;-75
2021/12/18 03:08:13;;;;;;;11.60;10.50;;;19.30;99.90;;;;;;4167128;28;20271;-75
2021/12/18 03:24:23;;;;;;;12.23;11.02;;;19.30;99.90;;;;;;4149706;28;20281;-75
2021/12/18 03:26:25;;;;;;;11.90;10.73;;;19.30;99.90;;;;;;4174781;28;20267;-75
2021/12/18 03:28:30;;;;;;;12.35;11.15;;;19.30;99.90;;;;;;4166353;28;20220;-75
2021/12/18 03:30:33;;;;;;;11.82;10.73;;;19.30;99.90;;;;;;4166498;28;20322;-75
2021/12/18 03:32:36;;;;;;;12.05;10.93;;;19.30;99.90;;;;;;4166695;28;20569;-75
2021/12/18 03:34:38;;;;;;;12.30;11.18;;;19.30;99.90;;;;;;4166327;28;20283;-75
2021/12/18 03:36:41;;;;;;;11.93;10.82;;;19.20;99.90;;;;;;4166546;28;20216;-75
2021/12/18 03:38:43;;;;;;;12.77;11.57;;;19.20;99.90;;;;;;4165728;28;20240;-75
2021/12/18 03:40:45;;;;;;;11.65;10.57;;;19.20;99.90;;;;;;4166259;28;20216;-75
2021/12/18 03:42:49;;;;;;;11.85;10.75;;;19.20;99.90;;;;;;4166581;28;20217;-75
2021/12/18 03:44:52;;;;;;;11.98;10.88;;;19.20;99.90;;;;;;4166547;28;20282;-75
2021/12/18 03:46:55;;;;;;;12.52;11.23;;;19.20;99.90;;;;;;4165832;28;20216;-75
2021/12/18 03:48:57;;;;;;;12.18;11.07;;;19.20;99.90;;;;;;4166209;28;20263;-75
2021/12/18 03:51:00;;;;;;;12.98;11.77;;;19.20;99.90;;;;;;4165930;28;20220;-75
2021/12/18 03:53:02;;;;;;;11.45;10.45;;;19.20;99.90;;;;;;4166232;28;20331;-75
2021/12/18 03:55:05;;;;;;;13.68;12.35;;;19.20;99.90;;;;;;4166089;28;20274;-75
2021/12/18 03:57:07;;;;;;;12.43;11.32;;;19.20;99.90;;;;;;4166315;28;20279;-75
2021/12/18 03:59:10;;;;;;;12.85;11.65;;;19.20;99.90;;;;;;4166113;28;20240;-75
2021/12/18 04:01:14;;;;;;;11.77;10.68;;;19.20;99.90;;;;;;4165556;28;20719;-75
2021/12/18 04:03:16;;;;;;;12.52;11.25;;;19.10;99.90;;;;;;4181579;28;20262;-75
2021/12/18 04:05:18;;;;;;;11.95;10.85;;;19.20;99.90;;;;;;4181675;28;20547;-75
2021/12/18 04:07:21;;;;;;;11.85;10.68;;;19.20;99.90;;;;;;4182409;28;20215;-75
2021/12/18 04:09:23;;;;;;;12.48;11.38;;;19.20;99.90;;;;;;4182225;28;20270;-75
2021/12/18 04:11:25;;;;;;;12.23;11.02;;;19.20;99.90;;;;;;4182387;28;20262;-75
2021/12/18 04:13:27;;;;;;;11.27;10.27;;;19.20;99.90;;;;;;4182216;28;20281;-75
2021/12/18 04:15:30;;;;;;;11.95;10.85;;;19.20;99.90;;;;;;4181956;28;20270;-75
2021/12/18 04:17:33;;;;;;;12.50;11.35;;;19.20;99.90;;;;;;4182132;28;20730;-75
2021/12/18 04:19:36;;;;;;;11.98;10.90;;;19.10;99.90;;;;;;4182280;28;20239;-75
2021/12/18 04:21:38;;;;;;;12.45;11.25;;;19.20;99.90;;;;;;4182263;28;20258;-75
2021/12/18 04:23:41;;;;;;;12.35;11.15;;;19.20;99.90;;;;;;4181847;28;20220;-75
2021/12/18 04:25:43;;;;;;;12.35;11.18;;;19.10;99.90;;;;;;4181835;28;20216;-75
2021/12/18 04:27:46;;;;;;;12.10;10.90;;;19.10;99.90;;;;;;4182202;28;20271;-75
2021/12/18 04:29:48;;;;;;;11.93;10.82;;;19.10;99.90;;;;;;4179150;28;20216;-75
2021/12/18 04:31:50;;;;;;;12.15;10.95;;;19.10;99.90;;;;;;4174838;28;20232;-75
2021/12/18 04:33:55;;;;;;;11.70;10.50;;;19.10;99.90;;;;;;4165270;28;20333;-75
2021/12/18 04:35:57;;;;;;;11.55;10.43;;;19.10;99.90;;;;;;4165570;28;20270;-75
2021/12/18 04:37:59;;;;;;;11.65;10.60;;;19.10;99.90;;;;;;4165548;28;20192;-75
2021/12/18 04:40:02;;;;;;;11.55;10.55;;;19.10;99.90;;;;;;4165459;28;20240;-75
2021/12/18 04:42:04;;;;;;;11.90;10.80;;;19.10;99.90;;;;;;4165336;28;20208;-75
2021/12/18 04:44:07;;;;;;;12.13;11.00;;;19.10;99.90;;;;;;4165393;28;20271;-75
2021/12/18 04:46:09;;;;;;;11.95;10.85;;;19.10;99.90;;;;;;4165095;28;20224;-75
2021/12/18 04:48:12;;;;;;;12.80;11.60;;;19.10;99.90;;;;;;4171976;28;20649;-75
2021/12/18 04:50:15;;;;;;;12.30;11.20;;;19.10;99.90;;;;;;4170188;28;20211;-75
2021/12/18 04:52:17;;;;;;;11.93;10.73;;;19.00;99.90;;;;;;4165465;28;20615;-75
2021/12/18 04:54:20;;;;;;;11.93;10.82;;;19.00;99.90;;;;;;4165416;28;20216;-75
2021/12/18 04:56:22;;;;;;;11.40;10.40;;;19.10;99.90;;;;;;4165296;28;20627;-75
2021/12/18 04:58:24;;;;;;;11.68;10.50;;;19.10;99.90;;;;;;4164991;28;20265;-75
2021/12/18 05:00:36;;;;;;;11.77;10.57;;;19.10;99.90;;;;;;4164885;28;20217;-75
2021/12/18 05:02:41;;;;;;;11.80;10.70;;;19.10;99.90;;;;;;4165045;28;20324;-75
2021/12/18 05:04:43;;;;;;;12.27;11.10;;;19.00;99.90;;;;;;4164703;28;20213;-75
2021/12/18 05:06:48;;;;;;;12.45;11.25;;;19.00;99.90;;;;;;4173403;28;20659;-75
2021/12/18 05:08:51;;;;;;;11.80;10.70;;;19.00;99.90;;;;;;4167319;28;20212;-75
2021/12/18 05:10:53;;;;;;;11.73;10.52;;;19.00;99.90;;;;;;4165095;28;20241;-75
2021/12/18 05:12:55;;;;;;;12.13;10.98;;;19.00;99.90;;;;;;4164755;28;20266;-75
2021/12/18 05:14:58;;;;;;;11.75;10.65;;;19.00;99.90;;;;;;4164474;28;20258;-75
2021/12/18 05:17:00;;;;;;;11.70;10.60;;;19.00;99.90;;;;;;4174146;28;20622;-75
2021/12/18 05:19:03;;;;;;;12.15;11.02;;;19.00;99.90;;;;;;4181369;28;20293;-75
2021/12/18 05:21:05;;;;;;;11.80;10.70;;;19.00;99.90;;;;;;4180954;28;20215;-75
2021/12/18 05:23:09;;;;;;;11.23;10.23;;;19.00;99.90;;;;;;4180373;28;20215;-75
2021/12/18 05:25:11;;;;;;;11.90;10.80;;;19.00;99.90;;;;;;4176124;28;20215;-75
2021/12/18 05:27:13;;;;;;;12.02;10.93;;;19.00;99.90;;;;;;4164703;28;20212;-75
2021/12/18 05:29:16;;;;;;;12.07;10.98;;;19.00;99.90;;;;;;4164468;28;20619;-75
2021/12/18 05:31:18;;;;;;;12.40;11.20;;;18.90;99.90;;;;;;4164433;28;20258;-75
2021/12/18 05:33:20;;;;;;;11.52;10.38;;;18.90;99.90;;;;;;4164291;28;20604;-75
2021/12/18 05:35:23;;;;;;;13.23;11.93;;;18.90;99.90;;;;;;4164525;28;20263;-75
2021/12/18 05:37:43;;;;;;;11.85;10.65;;;19.00;99.90;;;;;;4164067;28;20224;-75
2021/12/18 05:39:48;;;;;;;12.20;11.10;;;19.00;99.90;;;;;;4163667;28;20240;-75
2021/12/18 05:41:51;;;;;;;11.73;10.63;;;19.00;99.90;;;;;;4164409;28;20273;-75
2021/12/18 05:43:53;;;;;;;12.70;11.50;;;19.00;99.90;;;;;;4173352;28;20215;-75
2021/12/18 05:45:55;;;;;;;12.02;10.82;;;18.90;99.90;;;;;;4165025;28;20216;-75
2021/12/18 05:47:57;;;;;;;11.85;10.65;;;18.90;99.90;;;;;;4164372;28;20262;-75
2021/12/18 05:50:00;;;;;;;12.65;11.50;;;18.90;99.90;;;;;;4164245;28;20200;-75
2021/12/18 05:52:02;;;;;;;11.38;10.27;;;18.90;99.90;;;;;;4164530;28;20618;-75
2021/12/18 05:54:07;;;;;;;12.23;11.05;;;18.90;99.90;;;;;;4164278;28;20216;-75
2021/12/18 05:56:11;;;;;;;12.25;11.05;;;19.00;99.90;;;;;;4164309;28;20212;-75
2021/12/18 05:58:14;;;;;;;11.52;10.43;;;18.90;99.90;;;;;;4164482;28;20983;-75
2021/12/18 06:00:17;;;;;;;12.25;11.05;;;18.90;99.90;;;;;;4164168;28;20236;-75
2021/12/18 06:02:20;;;;;;;12.55;11.25;;;18.90;99.90;;;;;;4169326;28;20718;-75
2021/12/18 06:04:22;;;;;;;12.32;11.23;;;18.90;99.90;;;;;;4168862;28;20212;-75
2021/12/18 06:06:25;;;;;;;12.10;10.90;;;18.90;99.90;;;;;;4164311;28;20644;-75
2021/12/18 06:08:28;;;;;;;11.32;10.23;;;18.90;99.90;;;;;;4164106;28;20259;-75
2021/12/18 06:10:33;;;;;;;11.10;10.10;;;18.90;99.90;;;;;;4164155;28;20270;-75
2021/12/18 06:12:36;;;;;;;12.35;11.15;;;18.90;99.90;;;;;;4164140;28;20212;-75
2021/12/18 06:14:39;;;;;;;11.73;10.63;;;18.90;99.90;;;;;;4164200;28;20266;-75
2021/12/18 06:16:41;;;;;;;11.82;10.73;;;18.90;99.90;;;;;;4170852;28;20224;-75
2021/12/18 06:18:45;;;;;;;12.18;10.98;;;18.90;99.90;;;;;;4180627;28;20219;-75
2021/12/18 06:20:47;;;;;;;12.55;11.38;;;18.80;99.90;;;;;;4175683;28;20640;-75
2021/12/18 06:22:49;;;;;;;11.30;10.25;;;18.90;99.90;;;;;;4171194;28;20259;-75
2021/12/18 06:24:52;;;;;;;11.88;10.68;;;18.80;99.90;;;;;;4164398;28;20224;-75
2021/12/18 06:26:54;;;;;;;12.30;11.15;;;18.90;99.90;;;;;;4164360;28;20278;-75
2021/12/18 06:28:58;;;;;;;12.40;11.20;;;18.80;99.90;;;;;;4166157;28;20220;-75
2021/12/18 06:31:01;;;;;;;12.35;11.15;;;18.90;99.90;;;;;;4166775;28;20256;-75
2021/12/18 06:33:03;;;;;;;11.95;10.75;;;18.80;99.90;;;;;;4167160;28;20258;-75
2021/12/18 06:35:07;;;;;;;12.88;11.68;;;18.90;99.90;;;;;;4167274;28;20220;-75
2021/12/18 06:37:09;;;;;;;12.20;11.00;;;18.80;99.90;;;;;;4166963;28;20212;-75
2021/12/18 06:39:12;;;;;;;12.10;10.90;;;18.80;99.90;;;;;;4178549;28;20262;-75
2021/12/18 06:41:14;;;;;;;12.63;11.43;;;18.80;99.90;;;;;;4166706;28;20267;-75
2021/12/18 06:43:16;;;;;;;12.65;11.45;;;18.90;99.90;;;;;;4167006;28;20213;-74
2021/12/18 06:45:20;;;;;;;12.73;11.52;;;18.80;99.90;;;;;;4166911;28;20267;-75
2021/12/18 06:47:22;;;;;;;12.00;10.80;;;18.80;99.90;;;;;;4166575;28;20669;-75
2021/12/18 06:49:24;;;;;;;12.77;11.55;;;18.80;99.90;;;;;;4167039;28;20250;-75
2021/12/18 06:51:27;;;;;;;12.35;11.15;;;18.80;99.90;;;;;;4166830;28;20220;-75
2021/12/18 06:53:29;;;;;;;13.85;12.45;;;18.80;99.90;;;;;;4166987;28;20255;-75
2021/12/18 06:55:33;;;;;;;13.15;11.85;;;18.80;99.90;;;;;;4167069;28;20266;-75
2021/12/18 06:57:35;;;;;;;12.65;11.45;;;18.80;99.90;;;;;;4171440;28;20212;-75
2021/12/18 06:59:38;;;;;;;12.68;11.48;;;18.80;99.90;;;;;;4173488;28;20204;-75
2021/12/18 07:01:42;;;;;;;12.48;11.35;;;18.80;99.90;;;;;;4166484;28;20216;-75
2021/12/18 07:03:44;;;;;;;11.98;10.88;;;18.80;99.90;;;;;;4166479;28;20213;-75
2021/12/18 07:05:46;;;;;;;12.75;11.45;;;18.80;99.90;;;;;;4166552;28;20243;-75
2021/12/18 07:07:51;;;;;;;13.10;11.73;;;18.80;99.90;;;;;;4166774;28;20212;-75
2021/12/18 07:09:53;;;;;;;12.23;11.02;;;18.80;99.90;;;;;;4166596;28;20239;-75
2021/12/18 07:11:55;;;;;;;13.35;12.05;;;18.80;99.90;;;;;;4166788;28;20669;-75
2021/12/18 07:13:58;;;;;;;12.43;11.15;;;18.80;99.90;;;;;;4166659;28;20723;-75
2021/12/18 07:16:00;;;;;;;12.35;11.18;;;18.80;99.90;;;;;;4178636;28;20614;-75
2021/12/18 07:18:04;;;;;;;12.20;11.07;;;18.80;99.90;;;;;;4183266;28;20273;-75
2021/12/18 07:20:08;;;;;;;12.50;11.32;;;18.80;99.90;;;;;;4182740;28;20235;-75
2021/12/18 07:22:11;;;;;;;12.68;11.35;;;18.80;99.90;;;;;;4182821;28;20275;-75
2021/12/18 07:24:13;;;;;;;12.82;11.63;;;18.80;99.90;;;;;;4182807;28;20265;-75
2021/12/18 07:26:16;;;;;;;12.52;11.32;;;18.70;99.90;;;;;;4182534;28;20277;-75
2021/12/18 07:28:18;;;;;;;13.07;11.73;;;18.80;99.90;;;;;;4182906;28;20258;-75
2021/12/18 07:30:23;;;;;;;12.68;11.43;;;18.70;99.90;;;;;;4182800;28;20706;-75
2021/12/18 07:32:27;;;;;;;12.75;11.50;;;18.70;99.90;;;;;;4161753;28;20209;-75
2021/12/18 07:34:30;;;;;;;11.82;10.73;;;18.70;99.90;;;;;;4154204;28;20209;-75
2021/12/18 07:36:32;;;;;;;12.48;11.27;;;18.70;99.90;;;;;;4150335;28;20531;-75
2021/12/18 07:38:36;;;;;;;12.98;11.73;;;18.70;99.90;;;;;;4154484;28;20608;-75
2021/12/18 07:40:38;;;;;;;13.02;11.73;;;18.70;99.90;;;;;;4164615;28;20282;-75
2021/12/18 07:42:41;;;;;;;12.75;11.50;;;18.70;99.90;;;;;;4166064;28;20216;-75
2021/12/18 07:44:43;;;;;;;12.45;11.25;;;18.70;99.90;;;;;;4166270;28;20217;-75
2021/12/18 07:46:45;;;;;;;13.52;12.23;;;18.70;99.90;;;;;;4165929;28;20266;-75
2021/12/18 07:48:48;;;;;;;13.10;11.82;;;18.70;99.90;;;;;;4165903;28;20212;-75
2021/12/18 07:50:52;;;;;;;12.32;11.13;;;18.70;99.90;;;;;;4158473;28;20216;-75
2021/12/18 07:52:54;;;;;;;12.70;11.48;;;18.70;99.90;;;;;;4148863;28;20209;-75
2021/12/18 07:54:56;;;;;;;12.73;11.52;;;18.70;99.90;;;;;;4149314;28;20674;-75
2021/12/18 07:56:59;;;;;;;12.82;11.63;;;18.70;99.90;;;;;;4149149;28;20243;-75
2021/12/18 07:59:01;;;;;;;12.50;11.27;;;18.70;99.90;;;;;;4148936;28;20217;-75
2021/12/18 08:01:04;;;;;;;12.65;11.38;;;18.70;99.90;;;;;;4149298;28;20681;-75
2021/12/18 08:03:06;;;;;;;18.95;12.57;;;18.70;99.90;;;;;;4148856;28;20728;-75
2021/12/18 08:05:09;;;;;;;13.48;12.07;;;18.50;99.90;;;;;;4148986;28;20221;-75
2021/12/18 08:07:13;;;;;;;14.05;12.65;;;18.20;99.90;;;;;;4148484;28;20271;-75
2021/12/18 08:09:16;;;;;;;13.05;11.75;;;18.20;99.90;;;;;;4158276;28;20725;-75
2021/12/18 08:11:19;;;;;;;12.98;11.68;;;18.30;99.90;;;;;;4148627;28;20220;-75
2021/12/18 08:13:21;;;;;;;13.80;12.27;;;18.50;99.90;;;;;;4148657;28;20221;-75
2021/12/18 08:15:23;;;;;;;13.07;11.25;;;18.50;99.90;;;;;;4148896;28;20213;-75
2021/12/18 08:17:26;;;;;;;14.07;11.15;;;18.70;99.90;;;;;;4161327;28;20259;-75
2021/12/18 08:19:28;;;;;;;13.20;11.52;;;18.70;99.90;;;;;;4164880;28;20607;-75
2021/12/18 08:21:31;;;;;;;12.68;11.45;;;18.70;99.90;;;;;;4164790;28;20750;-75
2021/12/18 08:23:34;;;;;;;12.18;10.10;;;18.80;99.90;;;;;;4165277;28;20216;-75
2021/12/18 08:25:38;;;;;;;12.30;10.90;;;18.70;99.90;;;;;;4164516;28;20270;-75
2021/12/18 08:27:40;;;;;;;12.55;11.25;;;18.70;99.90;;;;;;4158903;28;20278;-75
2021/12/18 08:29:42;;;;;;;11.93;10.52;;;18.80;99.90;;;;;;4149037;28;20271;-75
2021/12/18 08:31:45;;;;;;;15.35;10.85;;;18.70;99.90;;;;;;4160343;28;20228;-75
2021/12/18 08:33:47;;;;;;;12.05;10.57;;;18.70;99.90;;;;;;4164663;28;20217;-75
2021/12/18 08:35:49;;;;;;;11.77;10.55;;;18.70;99.90;;;;;;4164694;28;20727;-75
2021/12/18 08:37:52;;;;;;;11.88;10.48;;;18.70;99.90;;;;;;4164738;28;20224;-75
2021/12/18 08:39:55;;;;;;;12.40;11.10;;;18.80;99.90;;;;;;4164620;28;20266;-75
2021/12/18 08:42:02;;;;;;;11.98;10.65;;;18.80;99.90;;;;;;4164742;28;20612;-75
2021/12/18 08:44:05;;;;;;;11.00;9.90;;;18.80;99.90;;;;;;4164643;28;20772;-75
2021/12/18 08:46:07;;;;;;;10.85;9.68;;;18.80;99.90;;;;;;4164539;28;20271;-75
2021/12/18 08:48:10;;;;;;;11.13;9.75;;;18.80;99.90;;;;;;4164527;28;20266;-75
2021/12/18 08:50:16;;;;;;;11.68;10.48;;;18.80;99.90;;;;;;4164796;28;20217;-75
2021/12/18 08:52:19;;;;;;;11.98;10.68;;;18.80;99.90;;;;;;4173569;28;20212;-75
2021/12/18 08:54:21;;;;;;;11.82;10.32;;;18.80;99.90;;;;;;4180413;28;20665;-75
2021/12/18 08:56:25;;;;;;;12.63;10.45;;;18.80;99.90;;;;;;4181077;28;20274;-75
2021/12/18 08:58:27;;;;;;;11.60;9.73;;;18.80;99.90;;;;;;4181028;28;20262;-75
2021/12/18 09:00:30;;;;;;;10.95;9.70;;;18.80;99.90;;;;;;4180931;28;20219;-75
2021/12/18 09:02:33;;;;;;;11.40;9.77;;;18.80;99.90;;;;;;4180662;28;20733;-75
2021/12/18 09:04:36;;;;;;;11.88;10.48;;;18.80;99.90;;;;;;4180703;28;20227;-75
2021/12/18 09:06:39;;;;;;;10.95;9.68;;;18.90;99.90;;;;;;4180941;28;20220;-75
2021/12/18 09:08:41;;;;;;;12.23;10.10;;;18.80;99.90;;;;;;4180619;28;20219;-75
2021/12/18 09:10:44;;;;;;;12.93;10.75;;;18.90;99.90;;;;;;4181018;28;20220;-75
2021/12/18 09:12:48;;;;;;;11.38;10.10;;;18.90;99.90;;;;;;4181442;28;20208;-75
2021/12/18 09:14:51;;;;;;;10.55;9.43;;;18.90;99.90;;;;;;4180907;28;20224;-75
2021/12/18 09:16:53;;;;;;;11.02;9.15;;;18.90;99.90;;;;;;4181106;28;20208;-75
2021/12/18 09:18:56;;;;;;;11.25;10.00;;;18.90;99.90;;;;;;4181164;28;20219;-75
2021/12/18 09:20:58;;;;;;;12.45;10.43;;;18.90;99.90;;;;;;4181106;28;20211;-75
2021/12/18 09:23:05;;;;;;;11.35;10.05;;;18.90;99.90;;;;;;4180809;28;20273;-75
2021/12/18 09:25:09;;;;;;;11.38;10.18;;;18.90;99.90;;;;;;4180880;28;20211;-75
2021/12/18 09:27:12;;;;;;;10.30;9.20;;;19.00;99.90;;;;;;4178901;28;20216;-75
2021/12/18 09:29:15;;;;;;;10.95;9.75;;;18.90;99.90;;;;;;4180774;28;20215;-75
2021/12/18 09:31:18;;;;;;;10.35;9.25;;;19.00;99.90;;;;;;4180574;28;20638;-75
2021/12/18 09:33:20;;;;;;;9.90;8.88;;;19.00;99.90;;;;;;4180922;28;20266;-75
2021/12/18 09:35:22;;;;;;;11.27;9.90;;;19.00;99.90;;;;;;4181018;28;20219;-75
2021/12/18 09:37:25;;;;;;;10.18;9.10;;;19.00;99.90;;;;;;4180721;28;20219;-75
2021/12/18 09:39:27;;;;;;;10.27;8.93;;;19.00;99.90;;;;;;4180644;28;20619;-75
2021/12/18 09:41:30;;;;;;;10.02;8.85;;;19.00;99.90;;;;;;4180738;28;20769;-75
2021/12/18 09:43:32;;;;;;;11.45;9.93;;;19.00;99.90;;;;;;4180489;28;20223;-75
2021/12/18 09:45:36;;;;;;;9.88;8.32;;;19.10;99.90;;;;;;4181063;28;20549;-75
2021/12/18 09:47:39;;;;;;;9.73;8.73;;;19.10;99.90;;;;;;4180813;28;20265;-75
2021/12/18 09:49:42;;;;;;;10.35;9.13;;;19.00;99.90;;;;;;4180630;28;20714;-75
2021/12/18 09:51:44;;;;;;;10.80;8.68;;;19.10;99.90;;;;;;4180762;28;20208;-75
2021/12/18 09:53:46;;;;;;;9.68;8.43;;;19.10;99.90;;;;;;4180848;28;20963;-75
2021/12/18 09:55:49;;;;;;;10.68;9.48;;;19.10;99.90;;;;;;4181000;28;20610;-75
2021/12/18 09:57:51;;;;;;;9.10;8.18;;;19.10;99.90;;;;;;4177994;28;20233;-75
2021/12/18 09:59:53;;;;;;;10.70;9.00;;;19.10;99.90;;;;;;4173736;28;20258;-75
2021/12/18 10:01:57;;;;;;;9.95;8.35;;;19.10;99.90;;;;;;4172095;28;20289;-75
2021/12/18 10:04:02;;;;;;;9.27;8.27;;;19.10;99.90;;;;;;4166000;28;20286;-75
2021/12/18 10:06:37;;;;;;;9.73;8.73;;;19.20;99.90;;;;;;4164391;28;20262;-75
2021/12/18 10:08:42;;;;;;;9.60;8.40;;;19.20;99.90;;;;;;4163627;28;20274;-75
2021/12/18 10:11:06;;;;;;;9.40;7.95;;;19.20;99.90;;;;;;4163933;28;20243;-75
2021/12/18 10:13:10;;;;;;;10.63;9.15;;;19.20;99.90;;;;;;4164129;28;20212;-75
2021/12/18 10:15:15;;;;;;;8.75;7.85;;;19.20;99.90;;;;;;4163923;28;20212;-75
2021/12/18 10:17:28;;;;;;;8.88;7.97;;;19.20;99.90;;;;;;4176073;28;20273;-75
2021/12/18 10:19:32;;;;;;;9.60;8.18;;;19.20;99.90;;;;;;4174375;28;20207;-75
2021/12/18 10:21:34;;;;;;;8.45;7.65;;;19.20;99.90;;;;;;4180288;28;20236;-75
2021/12/18 10:23:37;;;;;;;8.73;7.47;;;19.20;99.90;;;;;;4180076;28;20742;-75
2021/12/18 10:25:42;;;;;;;10.60;8.75;;;19.30;99.90;;;;;;4180119;28;20219;-75
2021/12/18 10:27:57;;;;;;;9.38;7.97;;;19.30;99.90;;;;;;4180247;28;20219;-75
2021/12/18 10:30:11;;;;;;;10.43;8.40;;;19.30;99.90;;;;;;4180181;28;20211;-75
2021/12/18 10:32:16;;;;;;;9.95;8.00;;;19.30;99.90;;;;;;4180014;28;20301;-75
2021/12/18 10:34:22;;;;;;;8.52;7.63;;;19.30;99.90;;;;;;4180296;28;20620;-75
2021/12/18 10:36:24;;;;;;;9.20;7.97;;;19.30;99.90;;;;;;4177735;28;21750;-75
2021/12/18 10:38:40;;;;;;;8.85;7.80;;;19.30;99.90;;;;;;4173241;28;20217;-75
2021/12/18 10:40:45;;;;;;;8.00;7.20;;;19.30;99.90;;;;;;4175485;28;20216;-75
2021/12/18 10:42:48;;;;;;;11.02;7.35;;;19.30;99.90;;;;;;4180446;28;20967;-75
2021/12/18 10:45:07;;;;;;;8.77;7.78;;;19.30;99.90;;;;;;4180345;28;20266;-75
2021/12/18 10:47:09;;;;;;;9.23;7.85;;;19.30;99.90;;;;;;4180005;28;20212;-75
2021/12/18 10:49:13;;;;;;;8.52;7.65;;;19.30;99.90;;;;;;4179913;28;20216;-75
2021/12/18 10:51:23;;;;;;;8.82;7.55;;;19.30;99.90;;;;;;4179683;28;20742;-75
2021/12/18 10:53:29;;;;;;;9.05;7.55;;;19.30;99.90;;;;;;4180009;28;20269;-75
2021/12/18 10:55:36;;;;;;;8.45;7.55;;;19.40;99.90;;;;;;4179759;28;20258;-75
2021/12/18 10:57:43;;;;;;;10.35;7.65;;;19.40;99.90;;;;;;4180072;28;20270;-75
2021/12/18 10:59:48;;;;;;;9.82;7.78;;;19.40;99.90;;;;;;4179915;28;20266;-75
2021/12/18 11:01:52;;;;;;;8.90;7.55;;;19.40;99.90;;;;;;4179991;28;20599;-75
2021/12/18 11:03:54;;;;;;;8.88;7.70;;;19.40;99.90;;;;;;4179713;28;20220;-75
2021/12/18 11:06:09;;;;;;;9.40;7.95;;;19.40;99.90;;;;;;4179854;28;20193;-75
2021/12/18 11:08:13;;;;;;;9.82;7.35;;;19.40;99.90;;;;;;4179504;28;20219;-75